sensor_id;sensor_type;location;lat;lon;timestamp;P1;durP1;ratioP1;P2;durP2;ratioP2
6017;SDS011;3037;51.068;13.780;2022-09-27T00:00:28;2.90;;;2.40;;
6017;SDS011;3037;51.068;13.780;2022-09-27T00:02:54;4.30;;;2.77;;
6017;SDS011;3037;51.068;13.780;2022-09-27T00:05:20;8.07;;;2.43;;
6017;SDS011;3037;51.068;13.780;2022-09-27T00:07:45;9.23;;;2.10;;
6017;SDS011;3037;51.068;13.780;2022-09-27T00:10:11;3.57;;;1.90;;
6017;SDS011;3037;51.068;13.780;2022-09-27T00:12:37;3.63;;;2.27;;
6017;SDS011;3037;51.068;13.780;2022-09-27T00:15:03;2.33;;;2.10;;
6017;SDS011;3037;51.068;13.780;2022-09-27T00:17:30;2.23;;;2.13;;
6017;SDS011;3037;51.068;13.780;2022-09-27T00:19:59;13.37;;;2.70;;
6017;SDS011;3037;51.068;13.780;2022-09-27T00:22:25;5.50;;;2.60;;
6017;SDS011;3037;51.068;13.780;2022-09-27T00:24:51;3.80;;;2.30;;
6017;SDS011;3037;51.068;13.780;2022-09-27T00:27:17;4.80;;;2.10;;
6017;SDS011;3037;51.068;13.780;2022-09-27T00:29:43;2.37;;;2.20;;
6017;SDS011;3037;51.068;13.780;2022-09-27T00:32:10;2.30;;;2.20;;
6017;SDS011;3037;51.068;13.780;2022-09-27T00:34:36;5.20;;;2.63;;
6017;SDS011;3037;51.068;13.780;2022-09-27T00:37:01;1.97;;;1.83;;
6017;SDS011;3037;51.068;13.780;2022-09-27T00:39:27;3.90;;;2.13;;
6017;SDS011;3037;51.068;13.780;2022-09-27T00:41:52;2.73;;;2.17;;
6017;SDS011;3037;51.068;13.780;2022-09-27T00:46:56;1.70;;;1.60;;
6017;SDS011;3037;51.068;13.780;2022-09-27T00:49:26;5.03;;;1.83;;
6017;SDS011;3037;51.068;13.780;2022-09-27T00:52:07;8.73;;;2.03;;
6017;SDS011;3037;51.068;13.780;2022-09-27T00:54:38;9.10;;;1.90;;
6017;SDS011;3037;51.068;13.780;2022-09-27T00:57:06;4.40;;;2.50;;
6017;SDS011;3037;51.068;13.780;2022-09-27T00:59:34;2.50;;;2.30;;
6017;SDS011;3037;51.068;13.780;2022-09-27T01:02:10;2.50;;;2.30;;
6017;SDS011;3037;51.068;13.780;2022-09-27T01:04:36;2.03;;;1.90;;
6017;SDS011;3037;51.068;13.780;2022-09-27T01:07:03;8.90;;;2.27;;
6017;SDS011;3037;51.068;13.780;2022-09-27T01:09:29;2.70;;;2.17;;
6017;SDS011;3037;51.068;13.780;2022-09-27T01:14:32;1.30;;;1.30;;
6017;SDS011;3037;51.068;13.780;2022-09-27T01:17:06;3.13;;;1.97;;
6017;SDS011;3037;51.068;13.780;2022-09-27T01:20:06;3.17;;;2.53;;
6017;SDS011;3037;51.068;13.780;2022-09-27T01:22:56;2.07;;;1.90;;
6017;SDS011;3037;51.068;13.780;2022-09-27T01:34:03;3.33;;;2.13;;
6017;SDS011;3037;51.068;13.780;2022-09-27T01:37:00;7.90;;;2.03;;
6017;SDS011;3037;51.068;13.780;2022-09-27T01:39:48;4.00;;;2.13;;
6017;SDS011;3037;51.068;13.780;2022-09-27T01:42:27;1.90;;;1.90;;
6017;SDS011;3037;51.068;13.780;2022-09-27T01:50:17;7.97;;;2.57;;
6017;SDS011;3037;51.068;13.780;2022-09-27T01:53:04;3.43;;;1.57;;
6017;SDS011;3037;51.068;13.780;2022-09-27T01:55:36;2.37;;;1.97;;
6017;SDS011;3037;51.068;13.780;2022-09-27T01:58:22;2.80;;;2.00;;
6017;SDS011;3037;51.068;13.780;2022-09-27T02:00:55;2.53;;;2.00;;
6017;SDS011;3037;51.068;13.780;2022-09-27T02:03:23;2.20;;;2.00;;
6017;SDS011;3037;51.068;13.780;2022-09-27T02:05:58;7.73;;;1.77;;
6017;SDS011;3037;51.068;13.780;2022-09-27T02:08:50;7.00;;;1.90;;
6017;SDS011;3037;51.068;13.780;2022-09-27T02:11:19;1.67;;;1.57;;
6017;SDS011;3037;51.068;13.780;2022-09-27T02:14:07;3.37;;;1.50;;
6017;SDS011;3037;51.068;13.780;2022-09-27T02:19:34;6.27;;;2.00;;
6017;SDS011;3037;51.068;13.780;2022-09-27T02:22:31;3.13;;;1.97;;
6017;SDS011;3037;51.068;13.780;2022-09-27T02:30:30;2.67;;;2.47;;
6017;SDS011;3037;51.068;13.780;2022-09-27T02:32:56;5.40;;;2.67;;
6017;SDS011;3037;51.068;13.780;2022-09-27T02:35:22;3.80;;;2.37;;
6017;SDS011;3037;51.068;13.780;2022-09-27T02:37:51;6.70;;;2.70;;
6017;SDS011;3037;51.068;13.780;2022-09-27T02:40:18;2.70;;;2.50;;
6017;SDS011;3037;51.068;13.780;2022-09-27T02:42:44;3.77;;;2.50;;
6017;SDS011;3037;51.068;13.780;2022-09-27T02:45:10;3.13;;;2.80;;
6017;SDS011;3037;51.068;13.780;2022-09-27T02:56:31;4.50;;;3.37;;
6017;SDS011;3037;51.068;13.780;2022-09-27T03:04:43;5.80;;;3.40;;
6017;SDS011;3037;51.068;13.780;2022-09-27T03:07:21;3.10;;;2.90;;
6017;SDS011;3037;51.068;13.780;2022-09-27T03:09:51;4.03;;;2.67;;
6017;SDS011;3037;51.068;13.780;2022-09-27T03:12:17;5.23;;;4.40;;
6017;SDS011;3037;51.068;13.780;2022-09-27T03:14:46;3.60;;;3.37;;
6017;SDS011;3037;51.068;13.780;2022-09-27T03:17:13;4.63;;;3.60;;
6017;SDS011;3037;51.068;13.780;2022-09-27T03:19:39;3.83;;;3.43;;
6017;SDS011;3037;51.068;13.780;2022-09-27T03:22:04;4.93;;;3.60;;
6017;SDS011;3037;51.068;13.780;2022-09-27T03:24:30;3.50;;;3.23;;
6017;SDS011;3037;51.068;13.780;2022-09-27T03:26:55;11.00;;;3.87;;
6017;SDS011;3037;51.068;13.780;2022-09-27T03:29:21;5.57;;;3.80;;
6017;SDS011;3037;51.068;13.780;2022-09-27T03:31:47;10.73;;;3.90;;
6017;SDS011;3037;51.068;13.780;2022-09-27T03:34:12;6.07;;;3.63;;
6017;SDS011;3037;51.068;13.780;2022-09-27T03:36:38;5.37;;;3.53;;
6017;SDS011;3037;51.068;13.780;2022-09-27T03:39:03;4.30;;;3.90;;
6017;SDS011;3037;51.068;13.780;2022-09-27T03:41:29;4.03;;;3.73;;
6017;SDS011;3037;51.068;13.780;2022-09-27T03:43:54;4.10;;;3.60;;
6017;SDS011;3037;51.068;13.780;2022-09-27T03:46:23;3.83;;;3.63;;
6017;SDS011;3037;51.068;13.780;2022-09-27T03:48:49;5.10;;;4.20;;
6017;SDS011;3037;51.068;13.780;2022-09-27T03:51:15;5.13;;;3.80;;
6017;SDS011;3037;51.068;13.780;2022-09-27T03:53:40;5.33;;;4.37;;
6017;SDS011;3037;51.068;13.780;2022-09-27T03:56:07;5.40;;;4.70;;
6017;SDS011;3037;51.068;13.780;2022-09-27T03:58:33;4.60;;;4.30;;
6017;SDS011;3037;51.068;13.780;2022-09-27T04:00:58;4.97;;;4.30;;
6017;SDS011;3037;51.068;13.780;2022-09-27T04:03:24;6.43;;;4.80;;
6017;SDS011;3037;51.068;13.780;2022-09-27T04:05:51;7.40;;;5.07;;
6017;SDS011;3037;51.068;13.780;2022-09-27T04:08:17;8.20;;;5.57;;
6017;SDS011;3037;51.068;13.780;2022-09-27T04:10:42;5.90;;;5.20;;
6017;SDS011;3037;51.068;13.780;2022-09-27T04:13:08;5.57;;;5.10;;
6017;SDS011;3037;51.068;13.780;2022-09-27T04:15:34;5.57;;;5.03;;
6017;SDS011;3037;51.068;13.780;2022-09-27T04:17:59;8.33;;;6.33;;
6017;SDS011;3037;51.068;13.780;2022-09-27T04:20:25;9.77;;;5.90;;
6017;SDS011;3037;51.068;13.780;2022-09-27T04:22:50;5.60;;;5.00;;
6017;SDS011;3037;51.068;13.780;2022-09-27T04:25:16;6.50;;;5.40;;
6017;SDS011;3037;51.068;13.780;2022-09-27T04:27:45;8.57;;;6.20;;
6017;SDS011;3037;51.068;13.780;2022-09-27T04:30:11;6.40;;;5.43;;
6017;SDS011;3037;51.068;13.780;2022-09-27T04:32:40;7.83;;;6.93;;
6017;SDS011;3037;51.068;13.780;2022-09-27T04:35:08;7.00;;;6.37;;
6017;SDS011;3037;51.068;13.780;2022-09-27T04:37:53;6.50;;;5.77;;
6017;SDS011;3037;51.068;13.780;2022-09-27T04:40:18;12.07;;;6.60;;
6017;SDS011;3037;51.068;13.780;2022-09-27T04:42:46;6.57;;;5.93;;
6017;SDS011;3037;51.068;13.780;2022-09-27T04:45:11;9.37;;;6.60;;
6017;SDS011;3037;51.068;13.780;2022-09-27T04:47:41;6.37;;;5.73;;
6017;SDS011;3037;51.068;13.780;2022-09-27T04:50:07;7.70;;;7.00;;
6017;SDS011;3037;51.068;13.780;2022-09-27T04:52:33;6.80;;;6.00;;
6017;SDS011;3037;51.068;13.780;2022-09-27T04:54:59;6.50;;;5.87;;
6017;SDS011;3037;51.068;13.780;2022-09-27T04:57:24;6.80;;;5.60;;
6017;SDS011;3037;51.068;13.780;2022-09-27T04:59:49;7.20;;;6.10;;
6017;SDS011;3037;51.068;13.780;2022-09-27T05:02:15;9.70;;;6.50;;
6017;SDS011;3037;51.068;13.780;2022-09-27T05:04:41;6.27;;;5.70;;
6017;SDS011;3037;51.068;13.780;2022-09-27T05:07:06;7.00;;;6.40;;
6017;SDS011;3037;51.068;13.780;2022-09-27T05:09:32;11.70;;;5.70;;
6017;SDS011;3037;51.068;13.780;2022-09-27T05:11:57;8.63;;;5.80;;
6017;SDS011;3037;51.068;13.780;2022-09-27T05:14:23;6.10;;;5.70;;
6017;SDS011;3037;51.068;13.780;2022-09-27T05:16:48;6.20;;;5.60;;
6017;SDS011;3037;51.068;13.780;2022-09-27T05:19:14;9.23;;;6.27;;
6017;SDS011;3037;51.068;13.780;2022-09-27T05:21:40;5.43;;;5.00;;
6017;SDS011;3037;51.068;13.780;2022-09-27T05:24:07;5.67;;;5.27;;
6017;SDS011;3037;51.068;13.780;2022-09-27T05:26:33;6.53;;;5.80;;
6017;SDS011;3037;51.068;13.780;2022-09-27T05:28:58;5.50;;;5.10;;
6017;SDS011;3037;51.068;13.780;2022-09-27T05:31:24;6.60;;;5.97;;
6017;SDS011;3037;51.068;13.780;2022-09-27T05:33:50;6.73;;;6.13;;
6017;SDS011;3037;51.068;13.780;2022-09-27T05:36:16;6.90;;;6.30;;
6017;SDS011;3037;51.068;13.780;2022-09-27T05:38:42;10.23;;;5.20;;
6017;SDS011;3037;51.068;13.780;2022-09-27T05:41:08;5.40;;;5.00;;
6017;SDS011;3037;51.068;13.780;2022-09-27T05:43:34;6.70;;;6.00;;
6017;SDS011;3037;51.068;13.780;2022-09-27T05:46:00;6.43;;;5.47;;
6017;SDS011;3037;51.068;13.780;2022-09-27T05:48:26;6.47;;;5.87;;
6017;SDS011;3037;51.068;13.780;2022-09-27T05:50:52;8.80;;;5.87;;
6017;SDS011;3037;51.068;13.780;2022-09-27T05:53:18;6.87;;;6.27;;
6017;SDS011;3037;51.068;13.780;2022-09-27T05:55:43;6.80;;;6.10;;
6017;SDS011;3037;51.068;13.780;2022-09-27T05:58:09;6.20;;;5.70;;
6017;SDS011;3037;51.068;13.780;2022-09-27T06:00:36;7.70;;;6.17;;
6017;SDS011;3037;51.068;13.780;2022-09-27T06:03:03;6.37;;;5.80;;
6017;SDS011;3037;51.068;13.780;2022-09-27T06:05:30;6.13;;;5.67;;
6017;SDS011;3037;51.068;13.780;2022-09-27T06:08:09;6.30;;;5.80;;
6017;SDS011;3037;51.068;13.780;2022-09-27T06:10:37;6.23;;;5.83;;
6017;SDS011;3037;51.068;13.780;2022-09-27T06:13:13;9.93;;;6.23;;
6017;SDS011;3037;51.068;13.780;2022-09-27T06:15:40;7.07;;;6.13;;
6017;SDS011;3037;51.068;13.780;2022-09-27T06:18:08;8.27;;;7.47;;
6017;SDS011;3037;51.068;13.780;2022-09-27T06:20:36;9.30;;;7.40;;
6017;SDS011;3037;51.068;13.780;2022-09-27T06:23:06;6.47;;;5.90;;
6017;SDS011;3037;51.068;13.780;2022-09-27T06:25:34;6.87;;;6.37;;
6017;SDS011;3037;51.068;13.780;2022-09-27T06:28:00;9.87;;;7.50;;
6017;SDS011;3037;51.068;13.780;2022-09-27T06:30:27;7.33;;;6.63;;
6017;SDS011;3037;51.068;13.780;2022-09-27T06:32:56;8.93;;;6.90;;
6017;SDS011;3037;51.068;13.780;2022-09-27T06:35:26;7.97;;;7.17;;
6017;SDS011;3037;51.068;13.780;2022-09-27T06:37:52;12.57;;;7.43;;
6017;SDS011;3037;51.068;13.780;2022-09-27T06:40:18;7.60;;;6.93;;
6017;SDS011;3037;51.068;13.780;2022-09-27T06:42:44;7.03;;;6.43;;
6017;SDS011;3037;51.068;13.780;2022-09-27T06:45:10;7.40;;;6.70;;
6017;SDS011;3037;51.068;13.780;2022-09-27T06:47:36;7.80;;;7.20;;
6017;SDS011;3037;51.068;13.780;2022-09-27T06:50:02;7.00;;;6.47;;
6017;SDS011;3037;51.068;13.780;2022-09-27T06:52:29;8.07;;;7.57;;
6017;SDS011;3037;51.068;13.780;2022-09-27T06:54:55;7.93;;;7.30;;
6017;SDS011;3037;51.068;13.780;2022-09-27T06:57:21;8.13;;;6.87;;
6017;SDS011;3037;51.068;13.780;2022-09-27T07:00:10;7.53;;;6.70;;
6017;SDS011;3037;51.068;13.780;2022-09-27T07:02:49;7.57;;;6.87;;
6017;SDS011;3037;51.068;13.780;2022-09-27T07:05:15;7.67;;;7.07;;
6017;SDS011;3037;51.068;13.780;2022-09-27T07:07:41;8.47;;;7.60;;
6017;SDS011;3037;51.068;13.780;2022-09-27T07:10:08;7.60;;;6.53;;
6017;SDS011;3037;51.068;13.780;2022-09-27T07:12:34;7.73;;;6.90;;
6017;SDS011;3037;51.068;13.780;2022-09-27T07:15:01;6.50;;;6.10;;
6017;SDS011;3037;51.068;13.780;2022-09-27T07:17:27;9.33;;;7.40;;
6017;SDS011;3037;51.068;13.780;2022-09-27T07:19:53;7.17;;;6.57;;
6017;SDS011;3037;51.068;13.780;2022-09-27T07:22:19;7.53;;;6.70;;
6017;SDS011;3037;51.068;13.780;2022-09-27T07:24:45;8.67;;;7.80;;
6017;SDS011;3037;51.068;13.780;2022-09-27T07:27:10;10.87;;;9.30;;
6017;SDS011;3037;51.068;13.780;2022-09-27T07:29:36;7.30;;;6.80;;
6017;SDS011;3037;51.068;13.780;2022-09-27T07:32:02;15.20;;;8.10;;
6017;SDS011;3037;51.068;13.780;2022-09-27T07:34:28;8.50;;;7.67;;
6017;SDS011;3037;51.068;13.780;2022-09-27T07:36:59;7.63;;;7.03;;
6017;SDS011;3037;51.068;13.780;2022-09-27T07:39:27;6.53;;;6.03;;
6017;SDS011;3037;51.068;13.780;2022-09-27T07:41:53;9.43;;;6.90;;
6017;SDS011;3037;51.068;13.780;2022-09-27T07:44:18;7.40;;;6.53;;
6017;SDS011;3037;51.068;13.780;2022-09-27T07:46:44;8.00;;;7.30;;
6017;SDS011;3037;51.068;13.780;2022-09-27T07:49:10;7.17;;;6.60;;
6017;SDS011;3037;51.068;13.780;2022-09-27T07:51:35;6.63;;;6.23;;
6017;SDS011;3037;51.068;13.780;2022-09-27T07:54:01;7.90;;;7.10;;
6017;SDS011;3037;51.068;13.780;2022-09-27T07:56:26;9.53;;;6.53;;
6017;SDS011;3037;51.068;13.780;2022-09-27T07:58:52;7.40;;;6.90;;
6017;SDS011;3037;51.068;13.780;2022-09-27T08:01:18;6.63;;;6.13;;
6017;SDS011;3037;51.068;13.780;2022-09-27T08:03:43;7.07;;;6.57;;
6017;SDS011;3037;51.068;13.780;2022-09-27T08:06:09;6.87;;;6.17;;
6017;SDS011;3037;51.068;13.780;2022-09-27T08:08:35;7.80;;;7.20;;
6017;SDS011;3037;51.068;13.780;2022-09-27T08:11:01;6.83;;;6.33;;
6017;SDS011;3037;51.068;13.780;2022-09-27T08:13:35;6.23;;;5.73;;
6017;SDS011;3037;51.068;13.780;2022-09-27T08:16:01;5.93;;;5.30;;
6017;SDS011;3037;51.068;13.780;2022-09-27T08:18:27;6.10;;;5.57;;
6017;SDS011;3037;51.068;13.780;2022-09-27T08:20:55;6.00;;;5.43;;
6017;SDS011;3037;51.068;13.780;2022-09-27T08:23:24;5.63;;;5.27;;
6017;SDS011;3037;51.068;13.780;2022-09-27T08:25:51;7.10;;;6.13;;
6017;SDS011;3037;51.068;13.780;2022-09-27T08:28:17;5.43;;;4.93;;
6017;SDS011;3037;51.068;13.780;2022-09-27T08:30:43;5.57;;;4.43;;
6017;SDS011;3037;51.068;13.780;2022-09-27T08:33:08;3.97;;;3.67;;
6017;SDS011;3037;51.068;13.780;2022-09-27T08:35:34;3.83;;;3.70;;
6017;SDS011;3037;51.068;13.780;2022-09-27T08:38:00;3.47;;;3.27;;
6017;SDS011;3037;51.068;13.780;2022-09-27T08:43:27;4.73;;;1.40;;
6017;SDS011;3037;51.068;13.780;2022-09-27T08:49:44;1.27;;;1.20;;
6017;SDS011;3037;51.068;13.780;2022-09-27T08:51:53;1.00;;;1.00;;
6017;SDS011;3037;51.068;13.780;2022-09-27T08:54:24;0.87;;;0.87;;
6017;SDS011;3037;51.068;13.780;2022-09-27T08:56:59;3.37;;;1.00;;
6017;SDS011;3037;51.068;13.780;2022-09-27T08:59:29;1.10;;;1.10;;
6017;SDS011;3037;51.068;13.780;2022-09-27T09:02:01;1.00;;;1.00;;
6017;SDS011;3037;51.068;13.780;2022-09-27T09:04:34;1.20;;;1.10;;
6017;SDS011;3037;51.068;13.780;2022-09-27T09:09:47;1.43;;;1.13;;
6017;SDS011;3037;51.068;13.780;2022-09-27T09:12:44;1.70;;;0.83;;
6017;SDS011;3037;51.068;13.780;2022-09-27T09:15:31;0.70;;;0.70;;
6017;SDS011;3037;51.068;13.780;2022-09-27T09:21:21;0.60;;;0.60;;
6017;SDS011;3037;51.068;13.780;2022-09-27T09:26:46;1.50;;;0.80;;
6017;SDS011;3037;51.068;13.780;2022-09-27T09:29:32;0.80;;;0.80;;
6017;SDS011;3037;51.068;13.780;2022-09-27T09:35:05;2.17;;;0.80;;
6017;SDS011;3037;51.068;13.780;2022-09-27T09:37:38;0.70;;;0.70;;
6017;SDS011;3037;51.068;13.780;2022-09-27T09:40:36;0.67;;;0.67;;
6017;SDS011;3037;51.068;13.780;2022-09-27T09:43:12;0.80;;;0.80;;
6017;SDS011;3037;51.068;13.780;2022-09-27T09:46:12;2.70;;;0.90;;
6017;SDS011;3037;51.068;13.780;2022-09-27T09:48:50;6.00;;;0.80;;
6017;SDS011;3037;51.068;13.780;2022-09-27T09:51:28;0.60;;;0.50;;
6017;SDS011;3037;51.068;13.780;2022-09-27T09:56:49;2.20;;;0.80;;
6017;SDS011;3037;51.068;13.780;2022-09-27T09:59:28;1.20;;;0.77;;
6017;SDS011;3037;51.068;13.780;2022-09-27T10:01:57;0.57;;;0.57;;
6017;SDS011;3037;51.068;13.780;2022-09-27T10:04:38;0.70;;;0.70;;
6017;SDS011;3037;51.068;13.780;2022-09-27T10:07:04;0.97;;;0.80;;
6017;SDS011;3037;51.068;13.780;2022-09-27T10:09:30;0.70;;;0.70;;
6017;SDS011;3037;51.068;13.780;2022-09-27T10:11:57;0.80;;;0.80;;
6017;SDS011;3037;51.068;13.780;2022-09-27T10:14:24;0.77;;;0.77;;
6017;SDS011;3037;51.068;13.780;2022-09-27T10:16:55;0.70;;;0.70;;
6017;SDS011;3037;51.068;13.780;2022-09-27T10:19:30;0.70;;;0.70;;
6017;SDS011;3037;51.068;13.780;2022-09-27T10:22:02;4.30;;;1.00;;
6017;SDS011;3037;51.068;13.780;2022-09-27T10:24:51;0.80;;;0.80;;
6017;SDS011;3037;51.068;13.780;2022-09-27T10:27:21;0.63;;;0.63;;
6017;SDS011;3037;51.068;13.780;2022-09-27T10:29:55;2.83;;;0.70;;
6017;SDS011;3037;51.068;13.780;2022-09-27T10:32:28;0.70;;;0.70;;
6017;SDS011;3037;51.068;13.780;2022-09-27T10:35:41;0.73;;;0.73;;
6017;SDS011;3037;51.068;13.780;2022-09-27T10:40:47;0.80;;;0.80;;
6017;SDS011;3037;51.068;13.780;2022-09-27T10:43:33;1.43;;;0.70;;
6017;SDS011;3037;51.068;13.780;2022-09-27T10:46:18;1.37;;;1.27;;
6017;SDS011;3037;51.068;13.780;2022-09-27T10:49:06;2.03;;;1.10;;
6017;SDS011;3037;51.068;13.780;2022-09-27T10:51:52;2.97;;;0.43;;
6017;SDS011;3037;51.068;13.780;2022-09-27T10:54:26;2.57;;;0.50;;
6017;SDS011;3037;51.068;13.780;2022-09-27T10:57:04;0.60;;;0.60;;
6017;SDS011;3037;51.068;13.780;2022-09-27T10:59:40;0.70;;;0.70;;
6017;SDS011;3037;51.068;13.780;2022-09-27T11:02:23;0.50;;;0.50;;
6017;SDS011;3037;51.068;13.780;2022-09-27T11:05:03;0.70;;;0.70;;
6017;SDS011;3037;51.068;13.780;2022-09-27T11:07:38;1.37;;;0.80;;
6017;SDS011;3037;51.068;13.780;2022-09-27T11:10:24;0.90;;;0.90;;
6017;SDS011;3037;51.068;13.780;2022-09-27T11:16:03;0.70;;;0.70;;
6017;SDS011;3037;51.068;13.780;2022-09-27T11:24:20;0.70;;;0.70;;
6017;SDS011;3037;51.068;13.780;2022-09-27T11:27:44;0.80;;;0.80;;
6017;SDS011;3037;51.068;13.780;2022-09-27T11:30:23;0.77;;;0.77;;
6017;SDS011;3037;51.068;13.780;2022-09-27T11:44:30;2.10;;;0.70;;
6017;SDS011;3037;51.068;13.780;2022-09-27T11:47:09;0.70;;;0.70;;
6017;SDS011;3037;51.068;13.780;2022-09-27T11:52:28;0.60;;;0.60;;
6017;SDS011;3037;51.068;13.780;2022-09-27T11:55:14;0.80;;;0.70;;
6017;SDS011;3037;51.068;13.780;2022-09-27T11:58:09;0.77;;;0.77;;
6017;SDS011;3037;51.068;13.780;2022-09-27T12:01:18;0.80;;;0.80;;
6017;SDS011;3037;51.068;13.780;2022-09-27T12:04:03;2.30;;;0.60;;
6017;SDS011;3037;51.068;13.780;2022-09-27T12:09:59;0.80;;;0.80;;
6017;SDS011;3037;51.068;13.780;2022-09-27T12:12:28;0.90;;;0.70;;
6017;SDS011;3037;51.068;13.780;2022-09-27T12:14:59;1.13;;;0.70;;
6017;SDS011;3037;51.068;13.780;2022-09-27T12:17:32;0.73;;;0.70;;
6017;SDS011;3037;51.068;13.780;2022-09-27T12:20:09;0.67;;;0.67;;
6017;SDS011;3037;51.068;13.780;2022-09-27T12:22:49;1.90;;;0.60;;
6017;SDS011;3037;51.068;13.780;2022-09-27T12:25:21;4.73;;;1.00;;
6017;SDS011;3037;51.068;13.780;2022-09-27T12:27:51;0.97;;;0.60;;
6017;SDS011;3037;51.068;13.780;2022-09-27T12:30:57;6.93;;;0.70;;
6017;SDS011;3037;51.068;13.780;2022-09-27T12:33:29;0.80;;;0.67;;
6017;SDS011;3037;51.068;13.780;2022-09-27T12:36:04;1.73;;;0.83;;
6017;SDS011;3037;51.068;13.780;2022-09-27T12:41:11;5.77;;;1.30;;
6017;SDS011;3037;51.068;13.780;2022-09-27T12:43:41;1.47;;;0.70;;
6017;SDS011;3037;51.068;13.780;2022-09-27T12:46:20;3.90;;;0.60;;
6017;SDS011;3037;51.068;13.780;2022-09-27T12:48:57;0.50;;;0.50;;
6017;SDS011;3037;51.068;13.780;2022-09-27T12:51:47;0.73;;;0.73;;
6017;SDS011;3037;51.068;13.780;2022-09-27T12:57:23;0.50;;;0.50;;
6017;SDS011;3037;51.068;13.780;2022-09-27T13:08:32;0.90;;;0.60;;
6017;SDS011;3037;51.068;13.780;2022-09-27T13:13:43;1.43;;;0.70;;
6017;SDS011;3037;51.068;13.780;2022-09-27T13:16:09;0.60;;;0.60;;
6017;SDS011;3037;51.068;13.780;2022-09-27T13:32:36;0.70;;;0.70;;
6017;SDS011;3037;51.068;13.780;2022-09-27T13:35:22;0.50;;;0.50;;
6017;SDS011;3037;51.068;13.780;2022-09-27T13:37:55;1.30;;;1.00;;
6017;SDS011;3037;51.068;13.780;2022-09-27T13:48:42;1.00;;;0.90;;
6017;SDS011;3037;51.068;13.780;2022-09-27T13:51:48;1.27;;;0.70;;
6017;SDS011;3037;51.068;13.780;2022-09-27T13:57:36;1.50;;;0.70;;
6017;SDS011;3037;51.068;13.780;2022-09-27T14:00:22;1.00;;;1.00;;
6017;SDS011;3037;51.068;13.780;2022-09-27T14:05:33;0.70;;;0.70;;
6017;SDS011;3037;51.068;13.780;2022-09-27T14:08:18;2.10;;;0.77;;
6017;SDS011;3037;51.068;13.780;2022-09-27T14:11:11;0.70;;;0.70;;
6017;SDS011;3037;51.068;13.780;2022-09-27T14:13:39;0.80;;;0.80;;
6017;SDS011;3037;51.068;13.780;2022-09-27T14:16:12;0.80;;;0.80;;
6017;SDS011;3037;51.068;13.780;2022-09-27T14:18:47;1.00;;;1.00;;
6017;SDS011;3037;51.068;13.780;2022-09-27T14:21:26;0.73;;;0.73;;
6017;SDS011;3037;51.068;13.780;2022-09-27T14:27:36;0.70;;;0.70;;
6017;SDS011;3037;51.068;13.780;2022-09-27T14:30:08;1.13;;;1.03;;
6017;SDS011;3037;51.068;13.780;2022-09-27T14:32:47;2.83;;;1.20;;
6017;SDS011;3037;51.068;13.780;2022-09-27T14:38:28;3.50;;;1.00;;
6017;SDS011;3037;51.068;13.780;2022-09-27T14:41:00;0.93;;;0.93;;
6017;SDS011;3037;51.068;13.780;2022-09-27T14:43:27;1.17;;;0.77;;
6017;SDS011;3037;51.068;13.780;2022-09-27T14:46:01;0.87;;;0.87;;
6017;SDS011;3037;51.068;13.780;2022-09-27T14:48:35;2.50;;;1.03;;
6017;SDS011;3037;51.068;13.780;2022-09-27T14:53:55;1.57;;;0.90;;
6017;SDS011;3037;51.068;13.780;2022-09-27T14:56:28;4.20;;;0.60;;
6017;SDS011;3037;51.068;13.780;2022-09-27T14:58:58;0.70;;;0.70;;
6017;SDS011;3037;51.068;13.780;2022-09-27T15:01:27;0.77;;;0.77;;
6017;SDS011;3037;51.068;13.780;2022-09-27T15:03:53;1.53;;;1.23;;
6017;SDS011;3037;51.068;13.780;2022-09-27T15:06:21;0.70;;;0.70;;
6017;SDS011;3037;51.068;13.780;2022-09-27T15:08:48;0.70;;;0.70;;
6017;SDS011;3037;51.068;13.780;2022-09-27T15:11:15;1.00;;;0.90;;
6017;SDS011;3037;51.068;13.780;2022-09-27T15:13:43;1.23;;;1.00;;
6017;SDS011;3037;51.068;13.780;2022-09-27T15:16:14;1.53;;;1.20;;
6017;SDS011;3037;51.068;13.780;2022-09-27T15:18:44;0.80;;;0.80;;
6017;SDS011;3037;51.068;13.780;2022-09-27T15:21:12;0.70;;;0.70;;
6017;SDS011;3037;51.068;13.780;2022-09-27T15:23:52;0.90;;;0.90;;
6017;SDS011;3037;51.068;13.780;2022-09-27T15:26:23;5.00;;;1.23;;
6017;SDS011;3037;51.068;13.780;2022-09-27T15:28:51;0.80;;;0.80;;
6017;SDS011;3037;51.068;13.780;2022-09-27T15:31:26;0.70;;;0.70;;
6017;SDS011;3037;51.068;13.780;2022-09-27T15:33:54;0.90;;;0.90;;
6017;SDS011;3037;51.068;13.780;2022-09-27T15:39:14;1.23;;;1.10;;
6017;SDS011;3037;51.068;13.780;2022-09-27T15:49:58;1.37;;;1.10;;
6017;SDS011;3037;51.068;13.780;2022-09-27T15:55:17;1.13;;;1.13;;
6017;SDS011;3037;51.068;13.780;2022-09-27T15:57:44;1.37;;;1.00;;
6017;SDS011;3037;51.068;13.780;2022-09-27T16:00:15;2.43;;;0.87;;
6017;SDS011;3037;51.068;13.780;2022-09-27T16:02:42;1.10;;;1.10;;
6017;SDS011;3037;51.068;13.780;2022-09-27T16:05:08;1.07;;;1.07;;
6017;SDS011;3037;51.068;13.780;2022-09-27T16:07:33;11.50;;;1.37;;
6017;SDS011;3037;51.068;13.780;2022-09-27T16:09:59;1.17;;;1.10;;
6017;SDS011;3037;51.068;13.780;2022-09-27T16:12:25;1.30;;;1.30;;
6017;SDS011;3037;51.068;13.780;2022-09-27T16:14:54;1.10;;;1.00;;
6017;SDS011;3037;51.068;13.780;2022-09-27T16:17:19;1.10;;;1.10;;
6017;SDS011;3037;51.068;13.780;2022-09-27T16:19:45;2.43;;;1.50;;
6017;SDS011;3037;51.068;13.780;2022-09-27T16:22:11;1.50;;;1.40;;
6017;SDS011;3037;51.068;13.780;2022-09-27T16:24:36;1.57;;;1.30;;
6017;SDS011;3037;51.068;13.780;2022-09-27T16:27:02;1.30;;;1.20;;
6017;SDS011;3037;51.068;13.780;2022-09-27T16:29:28;1.20;;;1.20;;
6017;SDS011;3037;51.068;13.780;2022-09-27T16:31:54;1.67;;;1.13;;
6017;SDS011;3037;51.068;13.780;2022-09-27T16:34:19;11.77;;;1.30;;
6017;SDS011;3037;51.068;13.780;2022-09-27T16:36:45;1.10;;;1.10;;
6017;SDS011;3037;51.068;13.780;2022-09-27T16:39:12;1.20;;;1.20;;
6017;SDS011;3037;51.068;13.780;2022-09-27T16:41:38;1.90;;;1.30;;
6017;SDS011;3037;51.068;13.780;2022-09-27T16:44:11;1.00;;;1.00;;
6017;SDS011;3037;51.068;13.780;2022-09-27T16:46:44;1.17;;;1.00;;
6017;SDS011;3037;51.068;13.780;2022-09-27T16:49:12;7.50;;;1.40;;
6017;SDS011;3037;51.068;13.780;2022-09-27T16:51:57;0.80;;;0.80;;
6017;SDS011;3037;51.068;13.780;2022-09-27T16:54:26;1.03;;;1.03;;
6017;SDS011;3037;51.068;13.780;2022-09-27T16:56:55;1.10;;;1.10;;
6017;SDS011;3037;51.068;13.780;2022-09-27T16:59:22;2.30;;;1.17;;
6017;SDS011;3037;51.068;13.780;2022-09-27T17:01:51;1.00;;;1.00;;
6017;SDS011;3037;51.068;13.780;2022-09-27T17:04:21;2.00;;;1.30;;
6017;SDS011;3037;51.068;13.780;2022-09-27T17:06:46;1.20;;;1.10;;
6017;SDS011;3037;51.068;13.780;2022-09-27T17:09:12;1.17;;;1.17;;
6017;SDS011;3037;51.068;13.780;2022-09-27T17:11:37;3.33;;;1.40;;
6017;SDS011;3037;51.068;13.780;2022-09-27T17:14:03;10.40;;;1.50;;
6017;SDS011;3037;51.068;13.780;2022-09-27T17:16:29;3.80;;;1.13;;
6017;SDS011;3037;51.068;13.780;2022-09-27T17:18:54;2.00;;;1.40;;
6017;SDS011;3037;51.068;13.780;2022-09-27T17:21:20;2.63;;;1.50;;
6017;SDS011;3037;51.068;13.780;2022-09-27T17:23:46;7.03;;;1.43;;
6017;SDS011;3037;51.068;13.780;2022-09-27T17:26:21;2.30;;;1.87;;
6017;SDS011;3037;51.068;13.780;2022-09-27T17:28:47;3.10;;;1.80;;
6017;SDS011;3037;51.068;13.780;2022-09-27T17:31:14;1.57;;;1.57;;
6017;SDS011;3037;51.068;13.780;2022-09-27T17:33:43;1.57;;;1.53;;
6017;SDS011;3037;51.068;13.780;2022-09-27T17:36:11;2.73;;;1.60;;
6017;SDS011;3037;51.068;13.780;2022-09-27T17:38:39;3.23;;;1.77;;
6017;SDS011;3037;51.068;13.780;2022-09-27T17:41:06;3.90;;;1.50;;
6017;SDS011;3037;51.068;13.780;2022-09-27T17:43:34;1.20;;;1.20;;
6017;SDS011;3037;51.068;13.780;2022-09-27T17:46:05;1.90;;;1.80;;
6017;SDS011;3037;51.068;13.780;2022-09-27T17:48:31;1.37;;;1.37;;
6017;SDS011;3037;51.068;13.780;2022-09-27T17:51:16;1.90;;;1.80;;
6017;SDS011;3037;51.068;13.780;2022-09-27T17:53:42;7.33;;;1.80;;
6017;SDS011;3037;51.068;13.780;2022-09-27T17:56:08;1.73;;;1.63;;
6017;SDS011;3037;51.068;13.780;2022-09-27T17:58:34;2.13;;;1.80;;
6017;SDS011;3037;51.068;13.780;2022-09-27T18:01:04;1.73;;;1.73;;
6017;SDS011;3037;51.068;13.780;2022-09-27T18:03:31;2.00;;;1.90;;